Lyons, New York
Current Conditions -  °F | °C
As of 11:16 PM on Wednesday 17 Dec 2014 (Local Time) from KPEO Reporting Station
Light Snow Light Snow  
Wind Chill: 24°   Ceiling: 3000
Heat Index: 33°   Visibility: 8mi
Dew Point: 25°   Wind: 12mph
Humidity: 72%   Direction: 270°W
Pressure: 29.94"   Gusts: NA
Location:  43.06°N, 76.99°W
Report Text: KPEO 180416Z AUTO 27010KT 8SM -SN FEW024 BKN030 OVC034 01/M04 A2994 RMK AO2 P0000 T00061039
Loading
Personal Weather Stations






























Interactive Weather Map New forecast layout! Learn more

10-Day Weather Forecast

Advertisements
Track Severe Weather on mobile